createdAt,value
2022-07-26T00:04:07.789Z,98923.59
2022-07-26T00:10:10.242Z,98918.94
2022-07-26T00:16:12.370Z,98932.03
2022-07-26T00:22:33.094Z,98934.13
2022-07-26T00:28:35.251Z,98933.25
2022-07-26T00:34:38.411Z,98931.31
2022-07-26T00:40:40.373Z,98926.16
2022-07-26T00:46:44.049Z,98922.34
2022-07-26T00:52:49.347Z,98925.03
2022-07-26T00:58:51.376Z,98917.97
2022-07-26T01:04:53.427Z,98932.38
2022-07-26T01:10:55.833Z,98938.13
2022-07-26T01:16:58.072Z,98941.38
2022-07-26T01:23:00.488Z,98944.38
2022-07-26T01:29:02.552Z,98943.81
2022-07-26T01:35:05.546Z,98935.91
2022-07-26T01:41:07.601Z,98950.34
2022-07-26T01:47:09.617Z,98953.69
2022-07-26T01:53:11.586Z,98948.53
2022-07-26T01:59:13.575Z,98951.53
2022-07-26T02:05:15.503Z,98940.72
2022-07-26T02:11:17.428Z,98958.94
2022-07-26T02:17:19.494Z,98963.56
2022-07-26T02:23:23.189Z,98959.53
2022-07-26T02:29:26.506Z,98979.41
2022-07-26T02:35:28.657Z,98990.28
2022-07-26T02:41:30.680Z,98978.38
2022-07-26T02:47:33.091Z,98979.63
2022-07-26T02:53:35.063Z,98970.16
2022-07-26T02:59:37.059Z,98972.56
2022-07-26T03:05:39.091Z,98976.34
2022-07-26T03:11:41.067Z,98981.28
2022-07-26T03:17:59.472Z,98980.53
2022-07-26T03:24:01.426Z,98981.31
2022-07-26T03:30:05.397Z,98977.81
2022-07-26T03:36:11.278Z,98985.22
2022-07-26T03:42:13.716Z,98983.22
2022-07-26T03:48:15.688Z,98982.69
2022-07-26T03:54:17.822Z,98984.91
2022-07-26T04:00:19.897Z,98983.78
2022-07-26T04:06:23.152Z,98980.84
2022-07-26T04:12:25.250Z,98990.84
2022-07-26T04:18:27.228Z,98994.97
2022-07-26T04:24:29.212Z,98994.69
2022-07-26T04:30:31.376Z,98989.47
2022-07-26T04:36:33.382Z,98992.41
2022-07-26T04:42:36.096Z,98990.00
2022-07-26T04:48:38.754Z,99001.91
2022-07-26T04:54:40.730Z,99003.66
2022-07-26T05:01:08.365Z,98997.19
2022-07-26T05:07:04.748Z,99005.59
2022-07-26T05:13:07.676Z,99011.06
2022-07-26T05:19:09.803Z,99014.69
2022-07-26T05:25:11.849Z,99020.88
2022-07-26T05:31:13.897Z,99019.69
2022-07-26T05:37:16.494Z,99026.31
2022-07-26T05:43:18.855Z,99024.31
2022-07-26T05:49:20.861Z,99015.97
2022-07-26T05:55:22.845Z,99017.91
2022-07-26T06:01:25.031Z,99026.09
2022-07-26T06:07:28.493Z,99031.50
2022-07-26T06:13:30.516Z,99027.69
2022-07-26T06:19:32.956Z,99035.56
2022-07-26T06:25:35.193Z,99034.56
2022-07-26T06:31:37.543Z,99036.44
2022-07-26T06:37:41.675Z,99034.25
2022-07-26T06:43:43.684Z,99038.91
2022-07-26T06:49:45.707Z,99041.09
2022-07-26T06:55:47.731Z,99037.56
2022-07-26T07:01:58.036Z,99029.38
2022-07-26T07:08:02.360Z,99037.00
2022-07-26T07:14:04.700Z,99043.28
2022-07-26T07:20:07.247Z,99054.97
2022-07-26T07:26:09.447Z,99053.81
2022-07-26T07:32:16.084Z,99063.16
2022-07-26T07:38:22.535Z,99054.69
2022-07-26T07:44:24.633Z,99069.97
2022-07-26T07:50:27.319Z,99067.53
2022-07-26T07:56:30.652Z,99067.53
2022-07-26T08:02:32.618Z,99057.72
2022-07-26T08:08:36.152Z,99065.00
2022-07-26T08:14:38.222Z,99072.84
2022-07-26T08:20:42.956Z,99080.50
2022-07-26T08:26:45.557Z,99076.38
2022-07-26T08:32:47.534Z,99076.59
2022-07-26T08:38:49.675Z,99081.78
2022-07-26T08:44:52.576Z,99085.22
2022-07-26T08:50:58.331Z,99082.34
2022-07-26T08:57:00.429Z,99085.28
2022-07-26T09:03:03.702Z,99087.69
2022-07-26T09:09:14.961Z,99095.78
2022-07-26T09:15:27.607Z,99104.50
2022-07-26T09:21:38.788Z,99109.97
2022-07-26T09:27:40.880Z,99103.63
2022-07-26T09:33:51.785Z,99106.00
2022-07-26T09:40:00.382Z,99113.66
2022-07-26T09:46:07.310Z,99126.84
2022-07-26T09:52:21.374Z,99122.78
2022-07-26T09:58:25.015Z,99113.59
2022-07-26T10:04:27.270Z,99122.97
2022-07-26T10:10:55.718Z,99127.38
2022-07-26T10:16:57.763Z,99138.72
2022-07-26T10:22:59.788Z,99142.28
2022-07-26T10:29:26.451Z,99147.66
2022-07-26T10:35:34.754Z,99155.28
2022-07-26T10:41:48.255Z,99157.16
2022-07-26T10:48:29.331Z,99152.19
2022-07-26T10:54:31.960Z,99145.09
2022-07-26T11:00:34.728Z,99140.84
2022-07-26T11:06:36.761Z,99148.16
2022-07-26T11:12:38.916Z,99152.34
2022-07-26T11:18:40.918Z,99161.88
2022-07-26T11:24:43.198Z,99179.31
2022-07-26T11:30:59.536Z,99195.22
2022-07-26T11:37:04.880Z,99205.38
2022-07-26T11:43:07.041Z,99212.44
2022-07-26T11:49:41.403Z,99214.38
2022-07-26T11:55:47.651Z,99218.09
2022-07-26T12:01:50.113Z,99213.50
2022-07-26T12:08:04.299Z,99221.91
2022-07-26T12:14:06.573Z,99221.94
2022-07-26T12:20:18.024Z,99218.13
2022-07-26T12:26:30.134Z,99220.72
2022-07-26T12:32:38.407Z,99210.81
2022-07-26T12:38:41.065Z,99221.22
2022-07-26T12:44:43.032Z,99217.75
2022-07-26T12:50:45.090Z,99225.31
2022-07-26T12:56:47.113Z,99232.59
2022-07-26T13:02:51.361Z,99250.53
2022-07-26T13:08:53.826Z,99248.34
2022-07-26T13:14:56.078Z,99239.66
2022-07-26T13:20:58.200Z,99245.41
2022-07-26T13:27:01.288Z,99256.34
2022-07-26T13:33:04.644Z,99251.13
2022-07-26T13:39:06.666Z,99262.44
2022-07-26T13:45:09.586Z,99271.16
2022-07-26T13:51:11.764Z,99286.59
2022-07-26T13:57:13.728Z,99291.78
2022-07-26T14:03:16.080Z,99305.72
2022-07-26T14:09:20.144Z,99301.09
2022-07-26T14:15:23.552Z,99293.28
2022-07-26T14:21:29.666Z,99300.16
2022-07-26T14:27:47.448Z,99299.03
2022-07-26T14:33:49.496Z,99306.78
2022-07-26T14:39:51.969Z,99318.47
2022-07-26T14:45:54.019Z,99324.19
2022-07-26T14:51:56.633Z,99322.88
2022-07-26T14:57:58.713Z,99318.72
2022-07-26T15:04:00.687Z,99306.28
2022-07-26T15:10:04.062Z,99307.84
2022-07-26T15:16:06.227Z,99306.13
2022-07-26T15:22:09.527Z,99304.25
2022-07-26T15:28:11.555Z,99305.97
2022-07-26T15:34:13.868Z,99298.50
2022-07-26T15:40:16.204Z,99302.06
2022-07-26T15:46:19.657Z,99300.16
2022-07-26T15:52:23.743Z,99301.91
2022-07-26T15:58:26.949Z,99317.75
2022-07-26T16:04:28.959Z,99311.91
2022-07-26T16:10:30.997Z,99300.47
2022-07-26T16:16:33.104Z,99307.47
2022-07-26T16:22:35.570Z,99302.00
2022-07-26T16:28:37.699Z,99297.53
2022-07-26T16:34:39.920Z,99307.06
2022-07-26T16:40:42.732Z,99313.19
2022-07-26T16:46:44.937Z,99312.66
2022-07-26T16:52:46.941Z,99318.84
2022-07-26T16:58:48.991Z,99347.81
2022-07-26T17:04:51.065Z,99347.91
2022-07-26T17:10:53.064Z,99349.47
2022-07-26T17:16:55.081Z,99351.25
2022-07-26T17:22:57.092Z,99341.75
2022-07-26T17:28:59.384Z,99329.09
2022-07-26T17:35:01.541Z,99341.28
2022-07-26T17:41:03.872Z,99341.66
2022-07-26T17:47:27.586Z,99353.53
2022-07-26T17:53:33.903Z,99357.72
2022-07-26T17:59:36.744Z,99366.34
2022-07-26T18:05:41.364Z,99358.59
2022-07-26T18:11:43.641Z,99366.06
2022-07-26T18:17:45.821Z,99364.00
2022-07-26T18:24:14.406Z,99354.09
2022-07-26T18:30:10.183Z,99352.16
2022-07-26T18:36:12.265Z,99357.97
2022-07-26T18:42:14.297Z,99354.59
2022-07-26T18:48:16.255Z,99341.88
2022-07-26T18:54:18.983Z,99352.69
2022-07-26T19:00:22.699Z,99351.16
2022-07-26T19:06:24.763Z,99355.47
2022-07-26T19:12:27.977Z,99356.97
2022-07-26T19:18:29.993Z,99362.09
2022-07-26T19:24:32.023Z,99362.59
2022-07-26T19:30:35.142Z,99362.78
2022-07-26T19:36:37.393Z,99374.75
2022-07-26T19:42:39.488Z,99393.50
2022-07-26T19:48:41.542Z,99392.63
2022-07-26T19:54:43.580Z,99390.81
2022-07-26T20:00:45.573Z,99388.03
2022-07-26T20:06:48.082Z,99396.16
2022-07-26T20:12:50.093Z,99398.88
2022-07-26T20:18:52.071Z,99398.41
2022-07-26T20:24:56.190Z,99409.69
2022-07-26T20:30:58.245Z,99398.88
2022-07-26T20:37:00.292Z,99405.34
2022-07-26T20:43:02.253Z,99401.59
2022-07-26T20:49:04.296Z,99406.97
2022-07-26T20:55:07.689Z,99413.25
2022-07-26T21:01:10.476Z,99416.94
2022-07-26T21:07:12.694Z,99420.25
2022-07-26T21:13:14.947Z,99432.66
2022-07-26T21:19:16.915Z,99435.84
2022-07-26T21:25:19.020Z,99437.13
2022-07-26T21:31:21.260Z,99445.16
2022-07-26T21:37:23.258Z,99458.25
2022-07-26T21:43:25.618Z,99456.94
2022-07-26T21:49:27.698Z,99465.31
2022-07-26T21:55:30.218Z,99468.59
2022-07-26T22:01:32.277Z,99462.00
2022-07-26T22:07:34.323Z,99474.59
2022-07-26T22:13:36.852Z,99477.75
2022-07-26T22:19:38.813Z,99473.31
2022-07-26T22:25:41.451Z,99477.19
2022-07-26T22:31:43.546Z,99466.22
2022-07-26T22:37:45.640Z,99461.69
2022-07-26T22:43:47.593Z,99452.66
2022-07-26T22:49:49.715Z,99453.06
2022-07-26T22:55:52.188Z,99446.31
2022-07-26T23:01:57.247Z,99464.47
2022-07-26T23:08:03.607Z,99477.53
2022-07-26T23:14:06.068Z,99476.94
2022-07-26T23:20:11.187Z,99473.19
2022-07-26T23:26:13.200Z,99473.78
2022-07-26T23:32:15.189Z,99479.91
2022-07-26T23:38:17.159Z,99474.72
2022-07-26T23:44:19.128Z,99463.88
2022-07-26T23:50:21.113Z,99474.56
2022-07-26T23:56:23.358Z,99468.81
